Use My Neighborhood Maps and Advanced Search To Discover Beach Homes, Villas and Lots For Sale On Hilton Head Island, Daufuskie Island and Bluffton!
Like us on Facebook
Click Here to contact me or call 843-298-5264 for immediate assistance!

Below are some of my recent closings on Hilton Head MLS

I have personally sold over $68,000,000 and 400 properties since 2003!
Properly priced Real Estate is moving fast!

 

Recently Sold or Under Contract
01/17/17THE SPA ON PR SOUND 2308 239 Beach City$70,750
01/31/17PALMETTO COMMONS CONDOMINIUMS D8 141 Lamotte$115,000
02/15/17HH RESORT 1211 663 WILLIAM HILTON$154,000
02/17/17HH RESORT 3211 663 William Hilton$85,000
02/23/17SOUTHWIND VILLA SH 229G 229 Carolina$6,500
02/24/17HH RESORT 2415 663 William Hilton$119,000
03/02/17HH RESORT 3314 663 William Hilton$105,000
03/09/17THE SPA ON PR SOUND 1209 239 Beach City$136,000
03/09/17THE SPA ON PR SOUND 3317 239 Beach City$60,000
03/28/17THE SPA ON PR SOUND 2213 239 Beach City$89,000
04/14/17HH RESORT 4230 663 William Hilton$140,000
04/18/17HHBT OCEAN VILLAS A108 40 Folly Field$98,500
04/21/17HH RESORT 2407 663 William Hilton$155,000
04/24/17HH RESORT 3108 663 William Hilton$85,000
04/25/17HH RESORT 2110 663 William Hilton$152,000
05/19/17HH RESORT 2212 663 William Hilton$148,500
05/23/17THE SPA ON PR SOUND 3222 239 Beach City$65,000
06/06/17SOUTH POINTE 46 39 Pointe South$370,000
07/07/17HH RESORT 2105 663 William Hilton$167,500
07/10/17OCEAN PALMS VILLA SH 114-3 14 Wimbledon$18,000
07/10/17OCEAN PALMS VILLA SH 132-2 14 Wimbledon$9,000
08/09/17THE SPA ON PR SOUND 3118 239 Beach City$75,000
08/11/17HH RESORT 3117 663 William Hilton$100,000
08/22/17WOODLAKE VILLAS 22A 96 Mathews$83,000
08/29/17HH RESORT 4201 663 William Hilton$173,500
09/05/17STONES THROW VILLAS 61 43 Folly Field$107,000
09/15/17HH RESORT 1424 663 William Hilton$125,000
09/20/17PLANTATION POINT 705 897 Fording Island$108,500
09/22/17SANDCASTLES BY THE SEA 25 71 Sandcastle$75,000
09/22/17SEA SIDE VILLAS 345 23 Forest$240,000
10/06/17BRITTANY PLACE 17 47 Brittany$240,000
11/17/17HH RESORT 4202 663 William Hilton$117,000
11/21/17FIDDLERS COVE VILLAS 23E 45 Folly Field$161,000
12/22/17HHBT TENNIS VILLAS B5 40 Folly Field$146,000
01/08/18HH RESORT 3216 663 William Hilton$113,500
01/10/18PLANTATION POINT 704 897 Fording Island$108,500
01/31/18INDIGO RUN 25 15 Dawson$598,000
02/28/18THE PRESERVE AT INDIGO RUN 4022 4 Indigo Run$330,000
03/12/18SHOREWOOD VILLAS 101 21 Forest Beach$625,000
03/28/18BEACHWALK VILLAS 183 125 Shipyard$295,000
03/29/18HH RESORT 3112 663 William Hilton$110,000
03/29/18HH RESORT 4312 663 William Hilton$110,000
04/25/18POINT COMFORT D 7 12 Nautilas$432,000
05/31/18OCEAN PALMS VILLA SH 143-2 14 Wimbledon Court - #143$8,500
06/13/18HH RESORT 1113 663 William Hilton$161,500
06/18/18FIDDLERS COVE VILLAS 23B 45 Folly Field$215,000
06/20/18HH RESORT 4404 663 William Hilton$82,250
06/28/18SUN CITY 377 272 Argent$172,000
06/29/18HH RESORT 2407 663 William Hilton$190,000
06/29/18HH RESORT 3204 663 William Hilton$120,000
07/16/18OCEAN PALMS VILLA SH 808-1 14 Wimbledon Court - #808$5,000
07/27/18SAILMASTER VILLAS 15 15 Sailmaster$216,000
08/01/18THE SPA ON PR SOUND 3337 239 Beach City$76,000
08/30/18HH RESORT 3411 663 William Hilton$85,000
09/19/18HH RESORT 4303 663 William Hilton$86,700
09/24/18MARSH SIDE VILLAS L7 5 Gumtree$167,250
10/26/18HH RESORT 4434 663 William Hilton$126,000
10/26/18PALMETTO DUNES 1 Yard Arm$657,500
10/31/18HH RESORT 3202 663 William Hilton$114,000
11/20/18MARSH SIDE VILLAS I-13 5 Gumtree$145,000
12/14/18HH RESORT 1406 663 William Hilton$198,000
12/14/18HH RESORT 2316 663 William Hilton$120,000
03/26/19HH RESORT 3201 663 William Hilton$124,900
03/26/19THE ESTATE AT WESTBURY 608 100 Kensington$96,500
04/10/19HH RESORT 1120 663 William Hilton$190,000
04/16/19HH RESORT 4115 663 William Hilton$120,000
05/22/19FIDDLERS COVE VILLAS 29E 45 Folly Field$190,000
05/29/19FIDDLERS COVE VILLAS 29D 45 Folly Field$193,500
05/30/19THE RESIDENCES AT EDGEWATER 2303 50 Verbena$310,000
07/16/19HH RESORT 1317 663 William Hilton$165,000
07/25/19CAROLINA ISLES 70 32 Dewees$370,000
07/25/19HHBT OCEAN VILLAS C132 40 Folly Field$182,500
08/23/19FIDDLERS COVE VILLAS 3F 45 Folly Field$172,000
09/09/19HHBT OCEAN VILLAS C121 40 Folly Field$132,500
09/19/19SEA SIDE VILLAS 250 23 Forest$188,500
11/05/19HH RESORT 1201 663 William Hilton$227,500
11/07/19THE PRESERVE AT INDIGO RUN 4023 4 Indigo Run$304,500
11/26/19HH RESORT 1121 663 William Hilton$167,000
Information on this website is believed to be accurate and up-to-date, however no warranty is expressed or implied. Properties advertised here may be courtesy listings but as your buyer's agent it is my job to protect your interests to the best of my ability and help you get the best price possible.


We do not attempt to independently verify the currency, completeness, accuracy or authenticity of the data contained herein. It may be subject to transcription and transmission errors. Accordingly, the data is provided on an "as is", "as available" basis only and may not reflect all real estate activity in the market. 2019 Multiple Listing Service of Hilton Head Island, Inc. All rights reserved. Certain information contained herein is derived from information which is the licensed property of, and copyrighted by, Multiple Listing Service of Hilton Head Island, Inc.

Call to schedule an appointment to verify information.